sensor_id;sensor_type;location;lat;lon;timestamp;P1;durP1;ratioP1;P2;durP2;ratioP2
14021;SDS011;7086;48.116;11.580;2022-08-01T00:00:25;1.25;;;1.23;;
14021;SDS011;7086;48.116;11.580;2022-08-01T00:02:53;1.13;;;1.13;;
14021;SDS011;7086;48.116;11.580;2022-08-01T00:05:21;1.27;;;1.10;;
14021;SDS011;7086;48.116;11.580;2022-08-01T00:07:51;1.30;;;1.23;;
14021;SDS011;7086;48.116;11.580;2022-08-01T00:10:19;1.65;;;1.08;;
14021;SDS011;7086;48.116;11.580;2022-08-01T00:12:47;1.15;;;1.15;;
14021;SDS011;7086;48.116;11.580;2022-08-01T00:15:18;1.63;;;1.00;;
14021;SDS011;7086;48.116;11.580;2022-08-01T00:17:46;1.00;;;1.00;;
14021;SDS011;7086;48.116;11.580;2022-08-01T00:20:14;2.30;;;1.50;;
14021;SDS011;7086;48.116;11.580;2022-08-01T00:22:45;2.65;;;1.30;;
14021;SDS011;7086;48.116;11.580;2022-08-01T00:25:13;1.20;;;1.20;;
14021;SDS011;7086;48.116;11.580;2022-08-01T00:27:41;1.38;;;1.10;;
14021;SDS011;7086;48.116;11.580;2022-08-01T00:30:13;1.00;;;1.00;;
14021;SDS011;7086;48.116;11.580;2022-08-01T00:32:44;1.85;;;1.30;;
14021;SDS011;7086;48.116;11.580;2022-08-01T00:35:12;0.98;;;0.98;;
14021;SDS011;7086;48.116;11.580;2022-08-01T00:37:40;2.42;;;1.00;;
14021;SDS011;7086;48.116;11.580;2022-08-01T00:40:11;1.10;;;1.10;;
14021;SDS011;7086;48.116;11.580;2022-08-01T00:42:39;1.42;;;1.33;;
14021;SDS011;7086;48.116;11.580;2022-08-01T00:45:08;1.90;;;1.17;;
14021;SDS011;7086;48.116;11.580;2022-08-01T00:47:38;1.10;;;1.02;;
14021;SDS011;7086;48.116;11.580;2022-08-01T00:50:08;1.02;;;1.02;;
14021;SDS011;7086;48.116;11.580;2022-08-01T00:52:37;1.17;;;1.17;;
14021;SDS011;7086;48.116;11.580;2022-08-01T00:55:07;1.10;;;1.10;;
14021;SDS011;7086;48.116;11.580;2022-08-01T00:57:39;1.00;;;1.00;;
14021;SDS011;7086;48.116;11.580;2022-08-01T01:00:08;1.67;;;1.15;;
14021;SDS011;7086;48.116;11.580;2022-08-01T01:02:39;1.27;;;1.27;;
14021;SDS011;7086;48.116;11.580;2022-08-01T01:05:10;1.17;;;1.00;;
14021;SDS011;7086;48.116;11.580;2022-08-01T01:07:40;1.15;;;1.10;;
14021;SDS011;7086;48.116;11.580;2022-08-01T01:10:17;1.02;;;1.02;;
14021;SDS011;7086;48.116;11.580;2022-08-01T01:12:55;1.30;;;1.00;;
14021;SDS011;7086;48.116;11.580;2022-08-01T01:15:33;1.10;;;1.10;;
14021;SDS011;7086;48.116;11.580;2022-08-01T01:18:11;1.27;;;1.10;;
14021;SDS011;7086;48.116;11.580;2022-08-01T01:20:48;1.05;;;1.02;;
14021;SDS011;7086;48.116;11.580;2022-08-01T01:23:37;1.48;;;1.38;;
14021;SDS011;7086;48.116;11.580;2022-08-01T01:26:28;1.05;;;1.05;;
14021;SDS011;7086;48.116;11.580;2022-08-01T01:29:13;1.00;;;1.00;;
14021;SDS011;7086;48.116;11.580;2022-08-01T01:31:46;0.80;;;0.80;;
14021;SDS011;7086;48.116;11.580;2022-08-01T01:34:19;1.30;;;1.20;;
14021;SDS011;7086;48.116;11.580;2022-08-01T01:36:48;0.90;;;0.90;;
14021;SDS011;7086;48.116;11.580;2022-08-01T01:39:18;1.05;;;1.05;;
14021;SDS011;7086;48.116;11.580;2022-08-01T01:41:51;1.30;;;1.20;;
14021;SDS011;7086;48.116;11.580;2022-08-01T01:44:23;1.23;;;1.15;;
14021;SDS011;7086;48.116;11.580;2022-08-01T01:46:52;1.25;;;1.23;;
14021;SDS011;7086;48.116;11.580;2022-08-01T01:49:23;1.10;;;1.10;;
14021;SDS011;7086;48.116;11.580;2022-08-01T01:51:54;1.00;;;1.00;;
14021;SDS011;7086;48.116;11.580;2022-08-01T01:54:24;1.20;;;1.20;;
14021;SDS011;7086;48.116;11.580;2022-08-01T01:56:59;2.58;;;1.20;;
14021;SDS011;7086;48.116;11.580;2022-08-01T01:59:33;1.15;;;1.02;;
14021;SDS011;7086;48.116;11.580;2022-08-01T02:02:05;1.05;;;0.95;;
14021;SDS011;7086;48.116;11.580;2022-08-01T02:04:36;1.17;;;1.15;;
14021;SDS011;7086;48.116;11.580;2022-08-01T02:07:09;1.08;;;1.08;;
14021;SDS011;7086;48.116;11.580;2022-08-01T02:09:41;1.10;;;1.10;;
14021;SDS011;7086;48.116;11.580;2022-08-01T02:12:10;1.27;;;1.17;;
14021;SDS011;7086;48.116;11.580;2022-08-01T02:14:41;1.30;;;1.20;;
14021;SDS011;7086;48.116;11.580;2022-08-01T02:17:12;1.08;;;1.00;;
14021;SDS011;7086;48.116;11.580;2022-08-01T02:19:53;1.00;;;1.00;;
14021;SDS011;7086;48.116;11.580;2022-08-01T02:22:24;1.40;;;1.20;;
14021;SDS011;7086;48.116;11.580;2022-08-01T02:24:59;1.50;;;1.40;;
14021;SDS011;7086;48.116;11.580;2022-08-01T02:27:34;1.77;;;1.10;;
14021;SDS011;7086;48.116;11.580;2022-08-01T02:30:10;1.13;;;1.13;;
14021;SDS011;7086;48.116;11.580;2022-08-01T02:32:43;1.17;;;1.17;;
14021;SDS011;7086;48.116;11.580;2022-08-01T02:35:18;1.20;;;1.20;;
14021;SDS011;7086;48.116;11.580;2022-08-01T02:37:50;1.20;;;1.20;;
14021;SDS011;7086;48.116;11.580;2022-08-01T02:40:20;0.90;;;0.90;;
14021;SDS011;7086;48.116;11.580;2022-08-01T02:42:49;1.10;;;1.10;;
14021;SDS011;7086;48.116;11.580;2022-08-01T02:45:25;1.40;;;1.30;;
14021;SDS011;7086;48.116;11.580;2022-08-01T02:47:55;1.00;;;1.00;;
14021;SDS011;7086;48.116;11.580;2022-08-01T02:50:31;2.25;;;1.20;;
14021;SDS011;7086;48.116;11.580;2022-08-01T02:53:01;1.48;;;1.10;;
14021;SDS011;7086;48.116;11.580;2022-08-01T02:55:32;1.17;;;1.13;;
14021;SDS011;7086;48.116;11.580;2022-08-01T02:58:01;1.00;;;1.00;;
14021;SDS011;7086;48.116;11.580;2022-08-01T03:00:31;1.27;;;1.23;;
14021;SDS011;7086;48.116;11.580;2022-08-01T03:03:01;1.60;;;1.50;;
14021;SDS011;7086;48.116;11.580;2022-08-01T03:05:30;1.30;;;1.23;;
14021;SDS011;7086;48.116;11.580;2022-08-01T03:08:06;1.23;;;1.23;;
14021;SDS011;7086;48.116;11.580;2022-08-01T03:10:39;1.10;;;1.10;;
14021;SDS011;7086;48.116;11.580;2022-08-01T03:13:11;2.10;;;1.33;;
14021;SDS011;7086;48.116;11.580;2022-08-01T03:15:45;3.60;;;1.40;;
14021;SDS011;7086;48.116;11.580;2022-08-01T03:18:14;1.30;;;1.25;;
14021;SDS011;7086;48.116;11.580;2022-08-01T03:20:45;1.67;;;1.58;;
14021;SDS011;7086;48.116;11.580;2022-08-01T03:23:13;1.58;;;1.48;;
14021;SDS011;7086;48.116;11.580;2022-08-01T03:25:44;1.92;;;1.55;;
14021;SDS011;7086;48.116;11.580;2022-08-01T03:28:13;1.67;;;1.25;;
14021;SDS011;7086;48.116;11.580;2022-08-01T03:30:45;2.00;;;0.95;;
14021;SDS011;7086;48.116;11.580;2022-08-01T03:33:16;1.50;;;1.40;;
14021;SDS011;7086;48.116;11.580;2022-08-01T03:35:46;1.23;;;1.13;;
14021;SDS011;7086;48.116;11.580;2022-08-01T03:38:21;1.52;;;1.42;;
14021;SDS011;7086;48.116;11.580;2022-08-01T03:40:53;1.40;;;1.40;;
14021;SDS011;7086;48.116;11.580;2022-08-01T03:43:30;1.50;;;1.40;;
14021;SDS011;7086;48.116;11.580;2022-08-01T03:46:10;4.40;;;1.27;;
14021;SDS011;7086;48.116;11.580;2022-08-01T03:48:53;1.15;;;1.15;;
14021;SDS011;7086;48.116;11.580;2022-08-01T03:51:26;1.75;;;1.15;;
14021;SDS011;7086;48.116;11.580;2022-08-01T03:53:56;1.35;;;1.25;;
14021;SDS011;7086;48.116;11.580;2022-08-01T03:56:31;2.45;;;1.92;;
14021;SDS011;7086;48.116;11.580;2022-08-01T03:59:16;1.95;;;1.50;;
14021;SDS011;7086;48.116;11.580;2022-08-01T04:18:20;1.50;;;1.50;;
14021;SDS011;7086;48.116;11.580;2022-08-01T04:21:02;1.65;;;1.55;;
14021;SDS011;7086;48.116;11.580;2022-08-01T04:23:47;1.35;;;1.25;;
14021;SDS011;7086;48.116;11.580;2022-08-01T04:26:18;1.42;;;1.30;;
14021;SDS011;7086;48.116;11.580;2022-08-01T04:29:04;1.58;;;1.48;;
14021;SDS011;7086;48.116;11.580;2022-08-01T16:27:12;1.30;;;1.20;;
14021;SDS011;7086;48.116;11.580;2022-08-01T18:56:10;1.50;;;1.00;;
14021;SDS011;7086;48.116;11.580;2022-08-01T18:58:52;1.40;;;1.15;;
14021;SDS011;7086;48.116;11.580;2022-08-01T19:01:34;2.05;;;1.90;;
14021;SDS011;7086;48.116;11.580;2022-08-01T19:04:16;1.60;;;1.50;;
14021;SDS011;7086;48.116;11.580;2022-08-01T19:09:34;2.17;;;1.88;;
14021;SDS011;7086;48.116;11.580;2022-08-01T19:12:19;4.10;;;1.77;;
14021;SDS011;7086;48.116;11.580;2022-08-01T19:14:48;1.65;;;1.55;;
14021;SDS011;7086;48.116;11.580;2022-08-01T19:17:18;1.60;;;1.50;;
14021;SDS011;7086;48.116;11.580;2022-08-01T19:19:53;1.83;;;1.73;;
14021;SDS011;7086;48.116;11.580;2022-08-01T19:27:52;2.15;;;1.30;;
14021;SDS011;7086;48.116;11.580;2022-08-01T19:33:21;1.48;;;1.38;;
14021;SDS011;7086;48.116;11.580;2022-08-01T19:36:16;1.55;;;1.20;;
14021;SDS011;7086;48.116;11.580;2022-08-01T19:39:12;1.30;;;1.20;;
14021;SDS011;7086;48.116;11.580;2022-08-01T19:41:47;1.80;;;1.70;;
14021;SDS011;7086;48.116;11.580;2022-08-01T19:44:24;1.67;;;1.58;;
14021;SDS011;7086;48.116;11.580;2022-08-01T19:47:07;4.03;;;2.60;;
14021;SDS011;7086;48.116;11.580;2022-08-01T19:49:38;2.38;;;2.15;;
14021;SDS011;7086;48.116;11.580;2022-08-01T19:54:54;2.80;;;2.10;;
14021;SDS011;7086;48.116;11.580;2022-08-01T19:57:27;1.52;;;1.40;;
14021;SDS011;7086;48.116;11.580;2022-08-01T20:00:19;1.63;;;1.52;;
14021;SDS011;7086;48.116;11.580;2022-08-01T20:02:48;1.85;;;1.75;;
14021;SDS011;7086;48.116;11.580;2022-08-01T20:05:54;1.52;;;1.42;;
14021;SDS011;7086;48.116;11.580;2022-08-01T20:11:10;4.43;;;1.50;;
14021;SDS011;7086;48.116;11.580;2022-08-01T20:21:56;1.38;;;1.30;;
14021;SDS011;7086;48.116;11.580;2022-08-01T20:24:31;1.63;;;1.52;;
14021;SDS011;7086;48.116;11.580;2022-08-01T20:27:05;2.10;;;1.80;;
14021;SDS011;7086;48.116;11.580;2022-08-01T20:29:49;2.17;;;1.73;;
14021;SDS011;7086;48.116;11.580;2022-08-01T20:32:32;1.63;;;1.30;;
14021;SDS011;7086;48.116;11.580;2022-08-01T20:44:48;1.70;;;1.52;;
14021;SDS011;7086;48.116;11.580;2022-08-01T20:47:31;1.40;;;1.27;;
14021;SDS011;7086;48.116;11.580;2022-08-01T20:50:06;1.30;;;1.30;;
14021;SDS011;7086;48.116;11.580;2022-08-01T20:52:56;1.60;;;1.50;;
14021;SDS011;7086;48.116;11.580;2022-08-01T20:55:43;1.70;;;1.02;;
14021;SDS011;7086;48.116;11.580;2022-08-01T20:58:33;2.25;;;1.38;;
14021;SDS011;7086;48.116;11.580;2022-08-01T21:01:19;1.25;;;1.25;;
14021;SDS011;7086;48.116;11.580;2022-08-01T21:03:55;1.67;;;1.58;;
14021;SDS011;7086;48.116;11.580;2022-08-01T21:06:52;1.70;;;1.60;;
14021;SDS011;7086;48.116;11.580;2022-08-01T21:09:29;2.42;;;1.60;;
14021;SDS011;7086;48.116;11.580;2022-08-01T21:12:05;1.58;;;1.48;;
14021;SDS011;7086;48.116;11.580;2022-08-01T21:14:48;1.23;;;1.23;;
14021;SDS011;7086;48.116;11.580;2022-08-01T21:17:24;1.40;;;1.30;;
14021;SDS011;7086;48.116;11.580;2022-08-01T21:20:06;1.83;;;1.73;;
14021;SDS011;7086;48.116;11.580;2022-08-01T21:22:40;1.42;;;1.40;;
14021;SDS011;7086;48.116;11.580;2022-08-01T21:25:33;1.50;;;1.50;;
14021;SDS011;7086;48.116;11.580;2022-08-01T21:28:02;1.70;;;1.60;;
14021;SDS011;7086;48.116;11.580;2022-08-01T21:30:32;1.80;;;1.70;;
14021;SDS011;7086;48.116;11.580;2022-08-01T21:36:28;1.13;;;1.13;;
14021;SDS011;7086;48.116;11.580;2022-08-01T21:39:01;1.45;;;1.35;;
14021;SDS011;7086;48.116;11.580;2022-08-01T21:41:41;1.58;;;1.48;;
14021;SDS011;7086;48.116;11.580;2022-08-01T21:44:25;3.20;;;1.40;;
14021;SDS011;7086;48.116;11.580;2022-08-01T21:47:09;1.15;;;1.15;;
14021;SDS011;7086;48.116;11.580;2022-08-01T21:49:43;1.50;;;1.40;;
14021;SDS011;7086;48.116;11.580;2022-08-01T21:52:24;1.13;;;1.13;;
14021;SDS011;7086;48.116;11.580;2022-08-01T21:55:22;1.90;;;1.80;;
14021;SDS011;7086;48.116;11.580;2022-08-01T21:58:12;2.33;;;1.10;;
14021;SDS011;7086;48.116;11.580;2022-08-01T22:01:09;1.02;;;1.02;;
14021;SDS011;7086;48.116;11.580;2022-08-01T22:03:51;1.88;;;1.08;;
14021;SDS011;7086;48.116;11.580;2022-08-01T22:09:08;0.90;;;0.90;;
14021;SDS011;7086;48.116;11.580;2022-08-01T22:11:52;1.13;;;1.02;;
14021;SDS011;7086;48.116;11.580;2022-08-01T22:14:38;0.70;;;0.70;;
14021;SDS011;7086;48.116;11.580;2022-08-01T22:17:09;0.85;;;0.85;;
14021;SDS011;7086;48.116;11.580;2022-08-01T22:19:39;0.80;;;0.80;;
14021;SDS011;7086;48.116;11.580;2022-08-01T22:22:09;1.05;;;0.73;;
14021;SDS011;7086;48.116;11.580;2022-08-01T22:24:40;0.73;;;0.73;;
14021;SDS011;7086;48.116;11.580;2022-08-01T22:27:08;0.60;;;0.60;;
14021;SDS011;7086;48.116;11.580;2022-08-01T22:29:48;3.13;;;0.70;;
14021;SDS011;7086;48.116;11.580;2022-08-01T22:32:25;0.85;;;0.85;;
14021;SDS011;7086;48.116;11.580;2022-08-01T22:34:56;0.77;;;0.60;;
14021;SDS011;7086;48.116;11.580;2022-08-01T22:37:26;1.40;;;0.88;;
14021;SDS011;7086;48.116;11.580;2022-08-01T22:39:58;0.75;;;0.75;;
14021;SDS011;7086;48.116;11.580;2022-08-01T22:42:31;1.23;;;0.65;;
14021;SDS011;7086;48.116;11.580;2022-08-01T22:45:08;0.60;;;0.60;;
14021;SDS011;7086;48.116;11.580;2022-08-01T22:47:49;0.85;;;0.85;;
14021;SDS011;7086;48.116;11.580;2022-08-01T22:50:30;0.77;;;0.77;;
14021;SDS011;7086;48.116;11.580;2022-08-01T22:53:04;0.50;;;0.50;;
14021;SDS011;7086;48.116;11.580;2022-08-01T22:55:44;0.70;;;0.70;;
14021;SDS011;7086;48.116;11.580;2022-08-01T22:58:17;1.13;;;0.63;;
14021;SDS011;7086;48.116;11.580;2022-08-01T23:00:51;1.85;;;0.70;;
14021;SDS011;7086;48.116;11.580;2022-08-01T23:03:22;0.40;;;0.40;;
14021;SDS011;7086;48.116;11.580;2022-08-01T23:05:55;0.68;;;0.68;;
14021;SDS011;7086;48.116;11.580;2022-08-01T23:08:30;1.10;;;0.68;;
14021;SDS011;7086;48.116;11.580;2022-08-01T23:11:01;0.55;;;0.55;;
14021;SDS011;7086;48.116;11.580;2022-08-01T23:13:31;0.60;;;0.60;;
14021;SDS011;7086;48.116;11.580;2022-08-01T23:16:00;0.57;;;0.57;;
14021;SDS011;7086;48.116;11.580;2022-08-01T23:18:28;0.60;;;0.60;;
14021;SDS011;7086;48.116;11.580;2022-08-01T23:20:58;0.63;;;0.63;;
14021;SDS011;7086;48.116;11.580;2022-08-01T23:23:32;0.60;;;0.60;;
14021;SDS011;7086;48.116;11.580;2022-08-01T23:26:02;0.50;;;0.50;;
14021;SDS011;7086;48.116;11.580;2022-08-01T23:28:31;0.77;;;0.77;;
14021;SDS011;7086;48.116;11.580;2022-08-01T23:30:58;1.08;;;0.68;;
14021;SDS011;7086;48.116;11.580;2022-08-01T23:33:30;0.50;;;0.50;;
14021;SDS011;7086;48.116;11.580;2022-08-01T23:35:58;1.02;;;0.70;;
14021;SDS011;7086;48.116;11.580;2022-08-01T23:38:25;0.70;;;0.70;;
14021;SDS011;7086;48.116;11.580;2022-08-01T23:40:55;0.60;;;0.60;;
14021;SDS011;7086;48.116;11.580;2022-08-01T23:43:38;0.55;;;0.55;;
14021;SDS011;7086;48.116;11.580;2022-08-01T23:46:07;0.80;;;0.80;;
14021;SDS011;7086;48.116;11.580;2022-08-01T23:48:36;0.63;;;0.63;;
14021;SDS011;7086;48.116;11.580;2022-08-01T23:51:05;0.50;;;0.50;;
14021;SDS011;7086;48.116;11.580;2022-08-01T23:53:33;0.70;;;0.70;;
14021;SDS011;7086;48.116;11.580;2022-08-01T23:56:01;0.85;;;0.50;;
14021;SDS011;7086;48.116;11.580;2022-08-01T23:58:29;0.80;;;0.80;;
